createdAt,value
2019-01-09T00:00:30.829Z,1.50
2019-01-09T00:02:59.113Z,2.07
2019-01-09T00:05:28.515Z,1.70
2019-01-09T00:07:56.890Z,2.67
2019-01-09T00:10:25.082Z,1.30
2019-01-09T00:12:53.430Z,2.00
2019-01-09T00:15:21.626Z,1.63
2019-01-09T00:17:49.900Z,1.50
2019-01-09T00:20:18.089Z,1.80
2019-01-09T00:22:46.350Z,1.73
2019-01-09T00:25:14.641Z,1.37
2019-01-09T00:27:42.974Z,2.90
2019-01-09T00:30:11.330Z,1.37
2019-01-09T00:32:39.594Z,2.80
2019-01-09T00:35:07.954Z,1.30
2019-01-09T00:37:36.218Z,2.20
2019-01-09T00:40:05.602Z,1.40
2019-01-09T00:42:33.870Z,1.60
2019-01-09T00:45:02.219Z,1.83
2019-01-09T00:47:30.472Z,1.87
2019-01-09T00:49:58.696Z,1.80
2019-01-09T00:52:27.025Z,1.90
2019-01-09T00:54:55.306Z,2.00
2019-01-09T00:57:23.634Z,1.80
2019-01-09T00:59:51.925Z,1.70
2019-01-09T01:02:24.408Z,1.60
2019-01-09T01:04:54.228Z,1.60
2019-01-09T01:07:39.106Z,1.53
2019-01-09T01:10:08.931Z,1.37
2019-01-09T01:12:50.837Z,1.50
2019-01-09T01:15:36.950Z,1.30
2019-01-09T01:18:06.766Z,1.10
2019-01-09T01:20:42.269Z,1.37
2019-01-09T01:23:12.001Z,1.57
2019-01-09T01:25:41.757Z,1.40
2019-01-09T01:28:14.446Z,1.60
2019-01-09T01:30:47.210Z,1.60
2019-01-09T01:33:25.906Z,1.67
2019-01-09T01:35:58.426Z,1.60
2019-01-09T01:38:30.894Z,1.57
2019-01-09T01:41:00.722Z,1.90
2019-01-09T01:43:30.528Z,1.63
2019-01-09T01:46:09.662Z,1.40
2019-01-09T01:48:55.983Z,1.87
2019-01-09T01:51:26.090Z,1.60
2019-01-09T01:53:55.878Z,1.63
2019-01-09T01:56:37.531Z,1.40
2019-01-09T01:59:07.350Z,1.50
2019-01-09T02:01:39.766Z,1.67
2019-01-09T02:04:21.606Z,1.63
2019-01-09T02:06:51.410Z,1.73
2019-01-09T02:09:37.733Z,1.77
2019-01-09T02:12:19.129Z,1.63
2019-01-09T02:14:48.885Z,2.03
2019-01-09T02:17:18.684Z,1.83
2019-01-09T02:19:51.397Z,1.87
2019-01-09T02:22:21.125Z,1.30
2019-01-09T02:24:50.874Z,1.40
2019-01-09T02:27:26.589Z,1.67
2019-01-09T02:29:56.414Z,1.53
2019-01-09T02:32:30.874Z,1.67
2019-01-09T02:34:59.229Z,1.50
2019-01-09T02:37:27.689Z,1.53
2019-01-09T02:39:55.979Z,1.80
2019-01-09T02:42:24.298Z,1.73
2019-01-09T02:44:52.580Z,1.67
2019-01-09T02:47:20.838Z,1.30
2019-01-09T02:49:49.129Z,1.50
2019-01-09T02:52:17.394Z,1.77
2019-01-09T02:54:45.679Z,1.90
2019-01-09T02:57:13.935Z,1.90
2019-01-09T02:59:42.216Z,1.80
2019-01-09T03:02:10.544Z,1.97
2019-01-09T03:04:38.801Z,1.90
2019-01-09T03:07:07.079Z,2.40
2019-01-09T03:09:35.346Z,2.03
2019-01-09T03:12:03.646Z,1.90
2019-01-09T03:14:31.973Z,1.40
2019-01-09T03:17:00.255Z,1.60
2019-01-09T03:19:28.577Z,2.00
2019-01-09T03:21:56.788Z,1.37
2019-01-09T03:24:25.046Z,1.67
2019-01-09T03:26:53.342Z,1.40
2019-01-09T03:29:21.605Z,2.00
2019-01-09T03:31:49.896Z,1.80
2019-01-09T03:34:18.163Z,1.83
2019-01-09T03:36:46.455Z,1.93
2019-01-09T03:39:14.728Z,2.13
2019-01-09T03:41:43.011Z,1.60
2019-01-09T03:44:11.341Z,1.70
2019-01-09T03:46:39.694Z,1.77
2019-01-09T03:49:07.955Z,1.23
2019-01-09T03:51:36.233Z,1.20
2019-01-09T03:54:04.493Z,1.77
2019-01-09T03:56:32.770Z,1.53
2019-01-09T03:59:01.032Z,1.30
2019-01-09T04:01:29.310Z,0.90
2019-01-09T04:03:57.499Z,1.20
2019-01-09T04:06:25.786Z,1.50
2019-01-09T04:08:53.990Z,1.30
2019-01-09T04:11:22.269Z,1.40
2019-01-09T04:13:50.466Z,1.20
2019-01-09T04:16:18.687Z,1.30
2019-01-09T04:18:46.955Z,1.70
2019-01-09T04:21:15.242Z,1.50
2019-01-09T04:23:43.505Z,1.60
2019-01-09T04:26:11.792Z,1.63
2019-01-09T04:28:40.050Z,1.40
2019-01-09T04:31:08.238Z,1.37
2019-01-09T04:33:36.451Z,1.40
2019-01-09T04:36:04.723Z,1.40
2019-01-09T04:38:33.011Z,1.07
2019-01-09T04:41:01.284Z,1.70
2019-01-09T04:43:29.561Z,1.10
2019-01-09T04:45:57.826Z,1.60
2019-01-09T04:48:26.115Z,1.20
2019-01-09T04:50:54.378Z,1.87
2019-01-09T04:53:22.661Z,1.47
2019-01-09T04:55:50.851Z,1.23
2019-01-09T04:58:19.145Z,2.47
2019-01-09T05:00:47.396Z,1.33
2019-01-09T05:03:15.689Z,1.80
2019-01-09T05:05:43.966Z,1.67
2019-01-09T05:08:12.181Z,1.37
2019-01-09T05:10:40.443Z,1.90
2019-01-09T05:13:08.728Z,1.30
2019-01-09T05:15:36.992Z,1.50
2019-01-09T05:18:05.283Z,1.60
2019-01-09T05:20:33.540Z,2.07
2019-01-09T05:23:01.821Z,1.60
2019-01-09T05:25:30.085Z,1.63
2019-01-09T05:27:58.305Z,1.53
2019-01-09T05:30:26.490Z,1.70
2019-01-09T05:32:54.701Z,2.03
2019-01-09T05:35:22.974Z,1.63
2019-01-09T05:37:51.266Z,1.73
2019-01-09T05:40:19.650Z,1.67
2019-01-09T05:42:47.924Z,1.10
2019-01-09T05:45:16.257Z,1.30
2019-01-09T05:47:44.545Z,1.53
2019-01-09T05:50:12.737Z,1.40
2019-01-09T05:52:40.994Z,2.00
2019-01-09T05:55:09.282Z,1.87
2019-01-09T05:57:37.539Z,2.10
2019-01-09T06:00:07.361Z,2.07
2019-01-09T06:02:35.549Z,1.30
2019-01-09T06:05:03.906Z,2.00
2019-01-09T06:07:32.102Z,1.83
2019-01-09T06:10:00.385Z,2.60
2019-01-09T06:12:28.574Z,1.43
2019-01-09T06:14:56.863Z,1.77
2019-01-09T06:17:25.138Z,1.60
2019-01-09T06:19:53.426Z,1.63
2019-01-09T06:22:21.619Z,1.67
2019-01-09T06:24:49.906Z,2.03
2019-01-09T06:27:18.170Z,1.60
2019-01-09T06:29:46.458Z,1.87
2019-01-09T06:32:14.726Z,1.60
2019-01-09T06:34:43.014Z,1.50
2019-01-09T06:37:11.278Z,1.60
2019-01-09T06:39:39.565Z,1.60
2019-01-09T06:42:07.817Z,2.20
2019-01-09T06:44:36.026Z,2.43
2019-01-09T06:47:04.298Z,2.10
2019-01-09T06:49:32.513Z,1.70
2019-01-09T06:52:00.701Z,1.60
2019-01-09T06:54:29.093Z,1.20
2019-01-09T06:56:57.349Z,1.30
2019-01-09T06:59:25.569Z,1.20
2019-01-09T07:01:53.822Z,1.20
2019-01-09T07:04:22.102Z,1.17
2019-01-09T07:06:50.374Z,1.40
2019-01-09T07:09:18.654Z,1.27
2019-01-09T07:11:46.922Z,1.30
2019-01-09T07:14:15.226Z,0.80
2019-01-09T07:16:43.588Z,0.83
2019-01-09T07:19:11.831Z,1.17
2019-01-09T07:21:45.490Z,0.83
2019-01-09T07:24:10.029Z,1.20
2019-01-09T07:26:38.341Z,0.90
2019-01-09T07:29:06.530Z,1.27
2019-01-09T07:31:34.818Z,1.40
2019-01-09T07:34:03.090Z,1.27
2019-01-09T07:36:31.305Z,1.33
2019-01-09T07:38:59.510Z,1.50
2019-01-09T07:41:27.797Z,1.03
2019-01-09T07:43:55.990Z,1.23
2019-01-09T07:46:24.213Z,1.23
2019-01-09T07:48:52.401Z,1.33
2019-01-09T07:51:20.625Z,1.50
2019-01-09T07:53:48.882Z,1.17
2019-01-09T07:56:17.173Z,1.60
2019-01-09T07:58:45.370Z,1.50
2019-01-09T08:01:13.582Z,1.80
2019-01-09T08:03:41.901Z,1.60
2019-01-09T08:06:10.114Z,1.87
2019-01-09T08:08:38.394Z,2.03
2019-01-09T08:11:06.679Z,1.50
2019-01-09T08:13:34.954Z,1.50
2019-01-09T08:16:03.239Z,1.70
2019-01-09T08:18:31.507Z,1.73
2019-01-09T08:21:05.255Z,1.53
2019-01-09T08:23:29.710Z,2.20
2019-01-09T08:25:57.995Z,2.10
2019-01-09T08:28:26.273Z,3.00
2019-01-09T08:30:54.558Z,3.90
2019-01-09T08:33:22.825Z,2.60
2019-01-09T08:35:51.181Z,2.03
2019-01-09T08:38:19.449Z,2.77
2019-01-09T08:40:47.786Z,1.80
2019-01-09T08:43:16.078Z,1.00
2019-01-09T08:45:44.342Z,1.30
2019-01-09T08:48:12.557Z,1.10
2019-01-09T08:50:40.821Z,1.40
2019-01-09T08:53:09.110Z,1.20
2019-01-09T08:55:37.379Z,2.30
2019-01-09T08:58:05.666Z,2.03
2019-01-09T09:00:33.926Z,1.80
2019-01-09T09:03:02.211Z,2.00
2019-01-09T09:05:30.402Z,2.20
2019-01-09T09:07:59.665Z,1.90
2019-01-09T09:10:27.994Z,1.90
2019-01-09T09:12:56.287Z,1.83
2019-01-09T09:15:24.568Z,1.70
2019-01-09T09:17:52.914Z,1.80
2019-01-09T09:20:21.189Z,7.30
2019-01-09T09:22:49.421Z,1.90
2019-01-09T09:25:17.749Z,2.20
2019-01-09T09:27:46.036Z,1.53
2019-01-09T09:30:17.610Z,1.50
2019-01-09T09:32:45.910Z,2.00
2019-01-09T09:35:14.112Z,2.43
2019-01-09T09:37:42.404Z,2.37
2019-01-09T09:40:12.201Z,2.00
2019-01-09T09:42:40.486Z,1.70
2019-01-09T09:45:10.121Z,1.43
2019-01-09T09:47:38.406Z,2.00
2019-01-09T09:50:08.214Z,1.70
2019-01-09T09:52:36.510Z,1.77
2019-01-09T09:55:12.617Z,1.80
2019-01-09T09:57:34.974Z,2.20
2019-01-09T10:00:03.510Z,1.57
2019-01-09T10:02:31.778Z,2.10
2019-01-09T10:05:00.264Z,2.60
2019-01-09T10:07:28.541Z,1.50
2019-01-09T10:09:56.825Z,1.50
2019-01-09T10:12:25.090Z,2.33
2019-01-09T10:14:53.378Z,1.87
2019-01-09T10:17:21.639Z,1.90
2019-01-09T10:19:49.922Z,1.77
2019-01-09T10:22:18.202Z,2.00
2019-01-09T10:24:46.486Z,1.70
2019-01-09T10:27:14.678Z,2.27
2019-01-09T10:29:42.898Z,1.50
2019-01-09T10:32:11.160Z,1.93
2019-01-09T10:34:39.442Z,1.90
2019-01-09T10:37:07.773Z,2.03
2019-01-09T10:39:36.153Z,1.83
2019-01-09T10:42:04.418Z,2.47
2019-01-09T10:44:34.554Z,2.00
2019-01-09T10:47:02.610Z,2.10
2019-01-09T10:49:30.894Z,2.27
2019-01-09T10:51:59.159Z,2.10
2019-01-09T10:54:27.446Z,2.17
2019-01-09T10:56:55.698Z,2.00
2019-01-09T10:59:23.983Z,2.47
2019-01-09T11:01:52.241Z,2.17
2019-01-09T11:04:20.521Z,3.77
2019-01-09T11:06:48.713Z,1.93
2019-01-09T11:09:17.001Z,1.80
2019-01-09T11:11:45.261Z,1.93
2019-01-09T11:14:13.854Z,2.10
2019-01-09T11:16:42.310Z,2.23
2019-01-09T11:19:10.522Z,2.17
2019-01-09T11:21:38.710Z,2.03
2019-01-09T11:24:06.946Z,1.97
2019-01-09T11:26:35.211Z,1.93
2019-01-09T11:29:03.480Z,2.40
2019-01-09T11:31:31.778Z,2.30
2019-01-09T11:34:00.017Z,2.33
2019-01-09T11:36:28.306Z,2.20
2019-01-09T11:38:56.566Z,2.23
2019-01-09T11:41:24.851Z,1.83
2019-01-09T11:43:53.107Z,1.90
2019-01-09T11:46:21.397Z,2.60
2019-01-09T11:48:49.658Z,1.90
2019-01-09T11:51:17.945Z,2.20
2019-01-09T11:53:46.209Z,2.03
2019-01-09T11:56:14.418Z,1.77
2019-01-09T11:58:42.690Z,2.07
2019-01-09T12:01:11.043Z,1.77
2019-01-09T12:03:39.306Z,1.80
2019-01-09T12:06:07.522Z,1.83
2019-01-09T12:08:35.792Z,2.20
2019-01-09T12:11:04.293Z,2.60
2019-01-09T12:13:32.616Z,2.33
2019-01-09T12:16:07.969Z,2.10
2019-01-09T12:18:30.801Z,2.50
2019-01-09T12:20:59.083Z,2.00
2019-01-09T12:23:27.349Z,2.10
2019-01-09T12:25:55.558Z,2.13
2019-01-09T12:28:23.822Z,2.13
2019-01-09T12:30:52.150Z,2.00
2019-01-09T12:33:20.374Z,2.80
2019-01-09T12:35:48.597Z,2.23
2019-01-09T12:38:16.783Z,2.47
2019-01-09T12:40:45.066Z,2.17
2019-01-09T12:43:13.333Z,2.80
2019-01-09T12:45:41.614Z,2.33
2019-01-09T12:48:09.874Z,2.00
2019-01-09T12:50:38.133Z,1.83
2019-01-09T12:53:06.417Z,2.17
2019-01-09T12:55:34.654Z,1.97
2019-01-09T12:58:02.894Z,2.43
2019-01-09T13:00:31.149Z,1.80
2019-01-09T13:02:59.362Z,2.47
2019-01-09T13:05:27.544Z,2.10
2019-01-09T13:07:55.754Z,2.03
2019-01-09T13:10:24.023Z,2.23
2019-01-09T13:12:52.865Z,1.60
2019-01-09T13:15:21.170Z,2.40
2019-01-09T13:17:49.530Z,2.40
2019-01-09T13:20:17.798Z,1.97
2019-01-09T13:22:46.153Z,2.40
2019-01-09T13:25:17.758Z,2.37
2019-01-09T13:27:46.041Z,1.70
2019-01-09T13:30:17.938Z,1.90
2019-01-09T13:32:46.332Z,2.10
2019-01-09T13:35:14.670Z,2.27
2019-01-09T13:37:42.958Z,1.70
2019-01-09T13:40:15.149Z,1.87
2019-01-09T13:42:43.357Z,1.63
2019-01-09T13:45:13.318Z,2.00
2019-01-09T13:47:41.882Z,2.30
2019-01-09T13:50:11.400Z,2.30
2019-01-09T13:52:39.686Z,2.10
2019-01-09T13:55:09.213Z,2.70
2019-01-09T13:57:37.500Z,1.70
2019-01-09T14:00:07.374Z,1.77
2019-01-09T14:02:35.658Z,1.70
2019-01-09T14:05:05.461Z,1.90
2019-01-09T14:07:33.813Z,2.10
2019-01-09T14:10:02.004Z,1.80
2019-01-09T14:12:30.285Z,1.80
2019-01-09T14:14:58.470Z,1.90
2019-01-09T14:17:26.679Z,2.17
2019-01-09T14:19:54.942Z,2.10
2019-01-09T14:22:23.227Z,1.53
2019-01-09T14:24:51.482Z,1.60
2019-01-09T14:27:19.766Z,1.53
2019-01-09T14:29:48.021Z,1.87
2019-01-09T14:32:17.098Z,2.70
2019-01-09T14:34:45.366Z,1.70
2019-01-09T14:37:13.555Z,1.73
2019-01-09T14:39:47.984Z,2.00
2019-01-09T14:42:11.753Z,1.40
2019-01-09T14:44:40.039Z,2.00
2019-01-09T14:47:08.305Z,1.70
2019-01-09T14:49:36.585Z,1.40
2019-01-09T14:52:04.841Z,1.80
2019-01-09T14:54:33.054Z,1.13
2019-01-09T14:57:01.244Z,2.13
2019-01-09T14:59:29.532Z,1.90
2019-01-09T15:01:57.786Z,1.53
2019-01-09T15:04:26.069Z,1.10
2019-01-09T15:06:54.253Z,1.67
2019-01-09T15:09:22.538Z,1.30
2019-01-09T15:11:50.816Z,1.80
2019-01-09T15:14:19.093Z,1.83
2019-01-09T15:16:47.358Z,1.50
2019-01-09T15:19:15.641Z,1.50
2019-01-09T15:21:43.831Z,1.13
2019-01-09T15:24:12.182Z,1.20
2019-01-09T15:26:40.447Z,1.83
2019-01-09T15:29:08.738Z,1.93
2019-01-09T15:31:36.997Z,1.10
2019-01-09T15:34:05.283Z,1.40
2019-01-09T15:36:33.553Z,1.77
2019-01-09T15:39:01.854Z,1.87
2019-01-09T15:41:30.117Z,1.53
2019-01-09T15:43:58.408Z,1.60
2019-01-09T15:46:26.665Z,1.70
2019-01-09T15:48:54.946Z,1.53
2019-01-09T15:51:23.214Z,1.57
2019-01-09T15:53:51.502Z,2.80
2019-01-09T15:56:19.766Z,2.10
2019-01-09T15:58:48.030Z,1.80
2019-01-09T16:01:16.311Z,2.03
2019-01-09T16:03:44.569Z,2.03
2019-01-09T16:06:12.781Z,2.37
2019-01-09T16:08:40.987Z,2.10
2019-01-09T16:11:09.618Z,2.17
2019-01-09T16:13:37.873Z,2.37
2019-01-09T16:16:06.082Z,4.30
2019-01-09T16:18:34.362Z,2.23
2019-01-09T16:21:02.582Z,2.90
2019-01-09T16:23:30.844Z,4.93
2019-01-09T16:25:59.138Z,9.33
2019-01-09T16:28:27.338Z,2.90
2019-01-09T16:30:57.157Z,2.73
2019-01-09T16:33:25.417Z,3.87
2019-01-09T16:35:54.711Z,3.50
2019-01-09T16:38:22.974Z,6.73
2019-01-09T16:40:51.266Z,3.60
2019-01-09T16:43:19.525Z,2.80
2019-01-09T16:45:47.878Z,5.40
2019-01-09T16:48:16.145Z,2.93
2019-01-09T16:50:44.430Z,2.50
2019-01-09T16:53:12.706Z,3.27
2019-01-09T16:55:40.996Z,2.90
2019-01-09T16:58:09.270Z,3.40
2019-01-09T17:00:42.257Z,3.17
2019-01-09T17:03:10.517Z,2.80
2019-01-09T17:05:39.006Z,2.37
2019-01-09T17:08:07.440Z,2.80
2019-01-09T17:10:35.737Z,4.27
2019-01-09T17:13:04.270Z,3.13
2019-01-09T17:15:32.675Z,2.30
2019-01-09T17:18:01.237Z,3.00
2019-01-09T17:20:31.068Z,2.70
2019-01-09T17:22:59.394Z,2.60
2019-01-09T17:25:27.747Z,2.47
2019-01-09T17:27:56.010Z,2.60
2019-01-09T17:30:25.766Z,2.57
2019-01-09T17:32:54.039Z,2.43
2019-01-09T17:35:22.371Z,3.90
2019-01-09T17:37:50.831Z,2.63
2019-01-09T17:40:20.170Z,3.40
2019-01-09T17:42:48.825Z,4.80
2019-01-09T17:45:17.094Z,5.23
2019-01-09T17:47:45.381Z,3.40
2019-01-09T17:50:30.290Z,4.33
2019-01-09T17:52:58.579Z,4.67
2019-01-09T17:55:26.915Z,4.00
2019-01-09T17:57:55.368Z,5.23
2019-01-09T18:00:27.667Z,2.70
2019-01-09T18:02:55.949Z,3.70
2019-01-09T18:05:24.215Z,3.20
2019-01-09T18:07:52.499Z,3.13
2019-01-09T18:10:21.831Z,3.07
2019-01-09T18:12:50.288Z,4.50
2019-01-09T18:15:19.627Z,3.93
2019-01-09T18:17:48.286Z,4.03
2019-01-09T18:20:17.428Z,8.47
2019-01-09T18:22:45.776Z,4.87
2019-01-09T18:25:17.814Z,3.77
2019-01-09T18:27:46.305Z,3.90
2019-01-09T18:30:27.091Z,3.93
2019-01-09T18:32:56.526Z,4.43
2019-01-09T18:35:32.051Z,4.33
2019-01-09T18:38:01.874Z,4.07
2019-01-09T18:40:31.674Z,3.67
2019-01-09T18:43:04.442Z,4.50
2019-01-09T18:45:34.245Z,3.67
2019-01-09T18:48:04.073Z,3.53
2019-01-09T18:50:33.866Z,3.60
2019-01-09T18:53:03.698Z,3.80
2019-01-09T18:55:31.970Z,3.20
2019-01-09T18:58:00.564Z,2.90
2019-01-09T19:00:28.818Z,3.00
2019-01-09T19:02:57.109Z,6.03
2019-01-09T19:05:25.446Z,10.43
2019-01-09T19:07:53.737Z,3.10
2019-01-09T19:10:22.768Z,3.83
2019-01-09T19:12:51.038Z,2.80
2019-01-09T19:15:19.398Z,3.30
2019-01-09T19:17:48.759Z,3.43
2019-01-09T19:20:17.122Z,3.30
2019-01-09T19:22:45.454Z,3.40
2019-01-09T19:25:14.910Z,3.53
2019-01-09T19:27:43.254Z,3.00
2019-01-09T19:30:13.075Z,4.20
2019-01-09T19:32:41.342Z,3.40
2019-01-09T19:35:09.702Z,3.60
2019-01-09T19:37:37.970Z,3.67
2019-01-09T19:40:07.849Z,3.23
2019-01-09T19:42:36.038Z,4.07
2019-01-09T19:45:05.878Z,4.20
2019-01-09T19:47:34.134Z,4.23
2019-01-09T19:50:02.691Z,4.73
2019-01-09T19:52:31.026Z,6.77
2019-01-09T19:54:59.322Z,4.43
2019-01-09T19:57:27.582Z,3.80
2019-01-09T19:59:55.882Z,6.23
2019-01-09T20:02:24.305Z,5.20
2019-01-09T20:04:52.607Z,4.97
2019-01-09T20:07:20.938Z,4.30
2019-01-09T20:09:49.166Z,9.43
2019-01-09T20:12:17.505Z,4.30
2019-01-09T20:14:46.202Z,5.23
2019-01-09T20:17:14.421Z,5.50
2019-01-09T20:19:42.685Z,6.03
2019-01-09T20:22:11.014Z,4.37
2019-01-09T20:24:39.413Z,4.10
2019-01-09T20:27:07.606Z,4.73
2019-01-09T20:29:35.962Z,3.93
2019-01-09T20:32:04.325Z,4.30
2019-01-09T20:34:32.609Z,5.50
2019-01-09T20:37:00.932Z,5.00
2019-01-09T20:39:29.219Z,3.57
2019-01-09T20:41:57.531Z,5.00
2019-01-09T20:44:25.838Z,3.70
2019-01-09T20:46:54.089Z,4.80
2019-01-09T20:49:22.354Z,3.90
2019-01-09T20:51:50.617Z,3.30
2019-01-09T20:54:18.888Z,3.90
2019-01-09T20:56:47.130Z,3.50
2019-01-09T20:59:15.342Z,3.03
2019-01-09T21:01:43.684Z,6.10
2019-01-09T21:04:12.205Z,3.87
2019-01-09T21:06:40.422Z,3.20
2019-01-09T21:09:08.762Z,7.97
2019-01-09T21:11:44.161Z,3.93
2019-01-09T21:14:07.020Z,2.57
2019-01-09T21:16:35.304Z,2.80
2019-01-09T21:19:03.685Z,3.20
2019-01-09T21:21:31.893Z,3.30
2019-01-09T21:24:00.151Z,2.77
2019-01-09T21:26:28.451Z,3.30
2019-01-09T21:28:56.717Z,3.40
2019-01-09T21:31:25.009Z,3.00
2019-01-09T21:33:53.269Z,2.37
2019-01-09T21:36:21.490Z,3.07
2019-01-09T21:38:49.766Z,2.70
2019-01-09T21:41:18.113Z,2.67
2019-01-09T21:43:46.376Z,2.70
2019-01-09T21:46:14.665Z,4.23
2019-01-09T21:48:42.941Z,2.70
2019-01-09T21:51:11.228Z,2.90
2019-01-09T21:53:39.490Z,2.90
2019-01-09T21:56:07.779Z,3.27
2019-01-09T21:58:36.057Z,2.40
2019-01-09T22:01:04.411Z,2.57
2019-01-09T22:03:32.682Z,2.70
2019-01-09T22:06:01.040Z,2.90
2019-01-09T22:08:29.306Z,2.70
2019-01-09T22:10:57.569Z,2.60
2019-01-09T22:13:25.846Z,3.13
2019-01-09T22:15:54.100Z,2.77
2019-01-09T22:18:22.314Z,2.73
2019-01-09T22:20:50.667Z,2.43
2019-01-09T22:23:18.942Z,2.13
2019-01-09T22:25:47.130Z,2.47
2019-01-09T22:28:15.414Z,2.30
2019-01-09T22:30:43.686Z,2.00
2019-01-09T22:33:11.975Z,2.97
2019-01-09T22:35:41.755Z,2.50
2019-01-09T22:38:10.185Z,2.70
2019-01-09T22:40:38.527Z,2.80
2019-01-09T22:43:06.815Z,3.17
2019-01-09T22:45:35.150Z,2.87
2019-01-09T22:48:03.438Z,3.90
2019-01-09T22:50:31.634Z,4.00
2019-01-09T22:52:59.986Z,3.07
2019-01-09T22:55:28.253Z,3.10
2019-01-09T22:57:56.486Z,3.47
2019-01-09T23:00:35.525Z,2.83
2019-01-09T23:03:05.386Z,2.80
2019-01-09T23:05:33.746Z,3.10
2019-01-09T23:08:02.046Z,3.20
2019-01-09T23:10:30.237Z,3.87
2019-01-09T23:12:58.514Z,3.30
2019-01-09T23:15:26.698Z,3.23
2019-01-09T23:17:54.996Z,4.10
2019-01-09T23:20:23.338Z,4.03
2019-01-09T23:22:51.694Z,3.67
2019-01-09T23:25:19.961Z,3.17
2019-01-09T23:27:48.246Z,4.07
2019-01-09T23:30:16.514Z,4.00
2019-01-09T23:32:44.870Z,3.23
2019-01-09T23:35:13.329Z,3.60
2019-01-09T23:37:41.537Z,3.87
2019-01-09T23:40:11.193Z,4.20
2019-01-09T23:42:39.485Z,3.90
2019-01-09T23:45:09.422Z,4.17
2019-01-09T23:47:37.722Z,4.50
2019-01-09T23:50:06.882Z,4.20
2019-01-09T23:52:35.170Z,3.97
2019-01-09T23:55:04.815Z,4.17
2019-01-09T23:57:33.083Z,4.70
